Flight EZE556P

  • Submitted By: Dave Hardy
  • Departure Airport: Humberside International (EGNJ)
  • Arrival Airport: Manchester (EGCC)
  • Aircraft: JS41 (G-MAJA)
  • Flight Time: 0.33
  • Date Submitted: 05/01/2009
  • Status: Accepted
Flight Details
Gross Revenue:
(17 load / £ 0.00 per unit
£ 0.00
Fuel Cost:
(637 fuel used @ 0 / unit)
£ 0.00

Flight Details

  • VATAWARE Link: -

Additional Log Information:

View Log

[2009/05/02 10:42:00]
Flight IATA:EZE556P
Pilot Number:EZE0001
Company ICAO:EZE
Aircraft Type:JS41
Aircraft Registration:JS41
Departing Airport: EGNJ
Destination Airport: EGCC
Online: VATSIM
Route:GOLES
Flight Level:12000
10:42 Zero fuel Weight: 17981 Lbs, Fuel Weight: 5811 Lbs
10:42 VATSIM:EGNJ 011850Z 23008KT 9999 BKN040 15/09 Q1022
10:42 VATSIM:EGCC 011850Z 22010KT CAVOK 13/09 Q1021
10:45 Parking Brakes off
10:45 Com1 Freq=124.90
10:48 VR= 131 Knots
10:48 V2= 138 Knots
10:48 Take-off
10:48 Take off Weight: 23751 Lbs
10:48 Wind: 275 @ 006 Knots Heading: 204
10:48 POS N53 33 59 W000 21 22
10:48 N11 38 N12 38
10:48 Flaps: at 140 Knots
10:48 Gear Up: 141 Knots
10:50 Com1 Freq=122.90
10:50 Com1 Freq=122.80
10:55 TOC
10:55 Fuel Weight: 5470 Lb
10:55 Flaps: at 213 Knots
10:55 Com1 Freq=123.80
10:55 Com1 Freq=118.80
10:55 Com1 Freq=118.77
10:55 Com1 Freq=118.65
10:55 Com1 Freq=118.57
10:57 TOD
10:57 Fuel Weight: 5408 Lb
11:03 Wind:241@028 Knots Heading: 258 Ground Speed: 214 Knots Altitude 5022 ft
11:05 Flaps: at 153 Knots
11:07 Flaps: at 203 Knots
11:08 Com1 Freq=118.55
11:08 Com1 Freq=118.60
11:08 Com1 Freq=118.62
11:09 Gear Down: 172 Knots
11:09 Flaps: at 170 Knots
11:11 TouchDown:Rate -279 ft/min Speed: 131 Knots
11:11 VATSIM:EGCC 011920Z 22009KT CAVOK 11/07 Q1022 NOSIG
11:11 Land
11:11 Wind:196@009 Knots
11:11 Heading: 229
11:11 Flight Duration: 00:23
11:11 Landing Weight: 23185 Lbs
11:11 POS N53 21 14 W002 16 27
11:18 Parking brakes on
11:18 Block to Block Duration: 00:33
11:18 Final Fuel: 5174 Lbls
11:18 Spent Fuel: 637 Lbls
11:18 Flight Length: 73 NM
11:18 TOD Land Length: 43 NM

Route Map